Time;durP1;ratioP1;P1;durP2;ratioP2;P2;SDS_P1;SDS_P2;PMS_P1;PMS_P2;Temp;Humidity;BMP_temperature;BMP_pressure;BME280_temperature;BME280_humidity;BME280_pressure;Samples;Min_cycle;Max_cycle;Signal;HPM_P1;HPM_P2
2021/06/21 00:06:54;;;;;;;8.5;5.7;;;;;;;18.93;100;98042.66;;;;
2021/06/21 00:16:54;;;;;;;12.4;7;;;;;;;18.58;100;98020.44;;;;
2021/06/21 00:26:53;;;;;;;9.6;6.9;;;;;;;18.7;100;98014.73;;;;
2021/06/21 00:36:53;;;;;;;8.8;6.1;;;;;;;18.64;100;97997.1;;;;
2021/06/21 00:46:53;;;;;;;9.3;6.7;;;;;;;18.63;100;97981.91;;;;
2021/06/21 00:56:52;;;;;;;10.2;6.9;;;;;;;18.55;100;97985.71;;;;
2021/06/21 01:06:52;;;;;;;9.5;6.8;;;;;;;18.53;100;97966.97;;;;
2021/06/21 01:16:51;;;;;;;8.9;5.8;;;;;;;18.41;100;97960.97;;;;
2021/06/21 01:26:51;;;;;;;6.6;4.8;;;;;;;18.49;100;97940.79;;;;
2021/06/21 01:36:50;;;;;;;12.4;6.4;;;;;;;18.43;100;97934.11;;;;
2021/06/21 01:46:50;;;;;;;10.7;6.7;;;;;;;18.34;100;97930.88;;;;
2021/06/21 01:56:50;;;;;;;7.6;6.2;;;;;;;18.31;100;97923.45;;;;
2021/06/21 02:06:49;;;;;;;9.3;6.4;;;;;;;18.1;100;97932.19;;;;
2021/06/21 02:16:51;;;;;;;8.8;5.9;;;;;;;17.92;100;97899.26;;;;
2021/06/21 02:26:48;;;;;;;7.7;5.7;;;;;;;17.97;100;97890.77;;;;
2021/06/21 02:36:48;;;;;;;8.2;5.2;;;;;;;18;100;97902.86;;;;
2021/06/21 02:46:47;;;;;;;8;5.2;;;;;;;18.16;100;97889.77;;;;
2021/06/21 02:56:55;;;;;;;6.9;5.1;;;;;;;18.31;100;97901.63;;;;
2021/06/21 03:06:47;;;;;;;7.6;6.1;;;;;;;18.44;100;97908.38;;;;
2021/06/21 03:16:48;;;;;;;7.7;5.2;;;;;;;18.54;100;97924.88;;;;
2021/06/21 03:26:47;;;;;;;12.9;6;;;;;;;18.62;100;97914.81;;;;
2021/06/21 03:36:45;;;;;;;8.5;4.8;;;;;;;18.81;100;97939.16;;;;
2021/06/21 03:46:45;;;;;;;11.3;5.6;;;;;;;18.79;100;97924.31;;;;
2021/06/21 03:56:44;;;;;;;7.2;4.7;;;;;;;18.97;100;97920.58;;;;
2021/06/21 04:06:44;;;;;;;13;5.8;;;;;;;19.45;100;97921.32;;;;
2021/06/21 04:16:43;;;;;;;10.2;4.9;;;;;;;19.68;100;97920.28;;;;
2021/06/21 04:26:43;;;;;;;9.7;5.7;;;;;;;20.04;100;97933.72;;;;
2021/06/21 04:36:43;;;;;;;13.4;5.9;;;;;;;20.57;100;97944.84;;;;
2021/06/21 04:46:43;;;;;;;8.3;5.6;;;;;;;20.94;100;97939;;;;
2021/06/21 04:56:43;;;;;;;9.5;5.7;;;;;;;21.47;100;97952.7;;;;
2021/06/21 05:06:43;;;;;;;13.1;6.5;;;;;;;21.95;100;97943.97;;;;
2021/06/21 05:16:43;;;;;;;10.2;7.1;;;;;;;21.98;100;97951.4;;;;
2021/06/21 05:26:43;;;;;;;20.1;5.8;;;;;;;22.24;100;97963.85;;;;
2021/06/21 05:36:43;;;;;;;8.5;6.1;;;;;;;22.59;100;97969.16;;;;
2021/06/21 05:46:43;;;;;;;14.9;5.9;;;;;;;22.84;100;97956.05;;;;
2021/06/21 05:56:43;;;;;;;10.9;5.9;;;;;;;23.25;100;97945.14;;;;
2021/06/21 06:06:44;;;;;;;9.4;5.9;;;;;;;23.64;100;97941.25;;;;
2021/06/21 06:16:44;;;;;;;7.3;4;;;;;;;23.9;100;97949.59;;;;
2021/06/21 06:26:44;;;;;;;6.8;5.1;;;;;;;24.17;100;97946.15;;;;
2021/06/21 06:36:45;;;;;;;8.3;4.4;;;;;;;24.7;100;97945.42;;;;
2021/06/21 06:46:45;;;;;;;7.4;3.9;;;;;;;25.07;100;97931.47;;;;
2021/06/21 06:57:01;;;;;;;8.3;4.7;;;;;;;25.32;100;97926.31;;;;
2021/06/21 07:06:49;;;;;;;8.2;4.4;;;;;;;25.43;100;97929.67;;;;
2021/06/21 07:16:48;;;;;;;6.8;4.8;;;;;;;25.88;100;97934.77;;;;
2021/06/21 07:26:49;;;;;;;7.7;4;;;;;;;26;100;97921.08;;;;
2021/06/21 07:36:49;;;;;;;11.7;4.8;;;;;;;26.35;100;97910.51;;;;
2021/06/21 07:46:49;;;;;;;8.4;4;;;;;;;26.7;100;97908.92;;;;
2021/06/21 07:56:50;;;;;;;21.5;4.8;;;;;;;26.95;97.08496;97923.75;;;;
2021/06/21 08:06:51;;;;;;;10.8;4.6;;;;;;;27.26;97.89551;97926.93;;;;
2021/06/21 08:16:52;;;;;;;10;4.2;;;;;;;27.45;93.73926;97917;;;;
2021/06/21 08:26:54;;;;;;;11;3.8;;;;;;;27.78;93.38672;97926.76;;;;
2021/06/21 08:36:54;;;;;;;11.3;4.1;;;;;;;28.03;89.63867;97922.51;;;;
2021/06/21 08:46:55;;;;;;;11.5;4.3;;;;;;;28.18;86.68359;97920.92;;;;
2021/06/21 08:56:58;;;;;;;9;3.9;;;;;;;28.47;90.01855;97913.29;;;;
2021/06/21 09:06:57;;;;;;;9.5;3.2;;;;;;;28.62;86.39355;97908.09;;;;
2021/06/21 09:16:58;;;;;;;11.2;4.4;;;;;;;28.7;87.34668;97901.91;;;;
2021/06/21 09:26:59;;;;;;;9.5;3.5;;;;;;;28.88;85.61035;97910.42;;;;
2021/06/21 09:37:00;;;;;;;11.1;4;;;;;;;29.02;85.51855;97908.42;;;;
2021/06/21 09:47:01;;;;;;;10.2;4.2;;;;;;;29.2;81.67773;97898.27;;;;
2021/06/21 09:57:02;;;;;;;7.4;3.5;;;;;;;29.13;79.61914;97898.5;;;;
2021/06/21 10:07:03;;;;;;;10.2;4.8;;;;;;;29.12;81.61426;97896.19;;;;
2021/06/21 10:17:04;;;;;;;12.2;4.8;;;;;;;29.68;74.43848;97883.11;;;;
2021/06/21 10:27:06;;;;;;;11.4;3.6;;;;;;;30.07;74.59375;97875.37;;;;
2021/06/21 10:37:07;;;;;;;16.5;5.6;;;;;;;29.91;73.30859;97868.81;;;;
2021/06/21 10:47:08;;;;;;;8.3;3.9;;;;;;;30.4;69.41406;97877.27;;;;
2021/06/21 10:57:09;;;;;;;11.5;4.5;;;;;;;30.34;72.10156;97856.82;;;;
2021/06/21 11:07:11;;;;;;;8.9;4.3;;;;;;;30.33;68.30371;97851.73;;;;
2021/06/21 11:17:13;;;;;;;11.2;4.1;;;;;;;30.6;65.8457;97839.95;;;;
2021/06/21 11:27:13;;;;;;;11.1;3.2;;;;;;;30.88;67.22559;97831.22;;;;
2021/06/21 11:37:15;;;;;;;11.9;3.7;;;;;;;30.74;63.90039;97823.46;;;;
2021/06/21 11:47:16;;;;;;;13;3.5;;;;;;;30.75;62.96289;97815.89;;;;
2021/06/21 11:57:17;;;;;;;9.2;4;;;;;;;30.81;61.72656;97802.91;;;;
2021/06/21 12:07:19;;;;;;;6.9;3.2;;;;;;;30.8;62.68652;97799.34;;;;
2021/06/21 12:17:20;;;;;;;9.2;3.4;;;;;;;30.69;64.72266;97793.45;;;;
2021/06/21 12:27:21;;;;;;;14;4.6;;;;;;;31.13;58.99023;97794.01;;;;
2021/06/21 12:37:23;;;;;;;10;2.8;;;;;;;31.24;62.2002;97776.84;;;;
2021/06/21 12:47:24;;;;;;;5.8;2.4;;;;;;;31.04;59.07422;97780.07;;;;
2021/06/21 12:57:25;;;;;;;11.8;3.3;;;;;;;31.15;58.18457;97774.04;;;;
2021/06/21 13:07:27;;;;;;;13.5;3;;;;;;;31.72;58.82813;97777.87;;;;
2021/06/21 13:17:28;;;;;;;7.4;2.7;;;;;;;31.79;56.05176;97778.31;;;;
2021/06/21 13:27:29;;;;;;;6.8;2.8;;;;;;;31.51;58.78906;97750.95;;;;
2021/06/21 13:37:31;;;;;;;6;3.3;;;;;;;32.02;60.1416;97748.95;;;;
2021/06/21 13:47:33;;;;;;;11.8;3.8;;;;;;;32.01;61.23438;97752.2;;;;
2021/06/21 13:57:33;;;;;;;9.1;2.9;;;;;;;32.07;60.75488;97745.56;;;;
2021/06/21 14:07:35;;;;;;;12.7;3.3;;;;;;;32.34;60.5293;97745.42;;;;
2021/06/21 14:17:37;;;;;;;7;3.1;;;;;;;32.81;60.73438;97747.45;;;;
2021/06/21 14:27:38;;;;;;;7.6;2.7;;;;;;;32.4;61.91797;97742.75;;;;
2021/06/21 14:37:39;;;;;;;6.4;2.2;;;;;;;32.82;62.30762;97739.86;;;;
2021/06/21 14:47:41;;;;;;;8.2;2.7;;;;;;;32.57;62.96289;97751.47;;;;
2021/06/21 14:57:42;;;;;;;6.9;3;;;;;;;32.8;60.26758;97740.32;;;;
2021/06/21 15:07:45;;;;;;;8.8;3;;;;;;;35.11;56.33887;97750.69;;;;
2021/06/21 15:17:46;;;;;;;5.4;2.7;;;;;;;34.91;55.61914;97745.88;;;;
2021/06/21 15:27:48;;;;;;;6.4;2.4;;;;;;;35.96;52.75098;97748.23;;;;
2021/06/21 15:37:50;;;;;;;6.4;2.3;;;;;;;37.38;50.47559;97754.36;;;;
2021/06/21 15:47:54;;;;;;;5.9;2.6;;;;;;;38.58;48.1582;97753.34;;;;
2021/06/21 15:57:55;;;;;;;6.9;2.5;;;;;;;39.01;44.32129;97756.54;;;;
2021/06/21 16:07:58;;;;;;;6.4;2.2;;;;;;;37.33;45.50293;97752.3;;;;
2021/06/21 16:18:01;;;;;;;3.5;1.9;;;;;;;37.21;47.25586;97759.18;;;;
2021/06/21 16:28:03;;;;;;;7.5;2.9;;;;;;;36.57;48.17969;97751.48;;;;
2021/06/21 16:38:05;;;;;;;8.7;2.9;;;;;;;36.77;47.17578;97757.7;;;;
2021/06/21 16:48:08;;;;;;;5.5;2.1;;;;;;;35.96;49.22461;97763.01;;;;
2021/06/21 16:58:10;;;;;;;5.6;2.3;;;;;;;34.36;54.19824;97773.89;;;;
2021/06/21 17:08:12;;;;;;;5.8;2.2;;;;;;;33.05;57.68652;97766.19;;;;
2021/06/21 17:18:14;;;;;;;4.4;2.6;;;;;;;31.92;60.4375;97753.8;;;;
2021/06/21 17:28:15;;;;;;;5.2;2.9;;;;;;;30.56;64.21777;97773.34;;;;
2021/06/21 17:38:17;;;;;;;14;2.9;;;;;;;29.78;67.46582;97781.94;;;;
2021/06/21 17:48:18;;;;;;;7.2;3.7;;;;;;;29.08;70.67578;97784.53;;;;
2021/06/21 17:58:19;;;;;;;7.7;3;;;;;;;28.34;73.08984;97776.69;;;;
2021/06/21 18:08:20;;;;;;;15.7;3.6;;;;;;;28.01;76.11523;97782.43;;;;
2021/06/21 18:18:21;;;;;;;6.5;3.5;;;;;;;27.55;78.38281;97774.75;;;;
2021/06/21 18:28:22;;;;;;;9;3.7;;;;;;;27.17;80.80957;97784.89;;;;
2021/06/21 18:38:23;;;;;;;8.6;3.6;;;;;;;26.91;82.46094;97770.17;;;;
2021/06/21 18:48:23;;;;;;;9.8;4;;;;;;;26.59;85.29785;97784.78;;;;
2021/06/21 18:58:25;;;;;;;8.4;4.4;;;;;;;26.39;86.07715;97793.17;;;;
2021/06/21 19:08:27;;;;;;;7.5;3.6;;;;;;;26.18;87.11914;97803.95;;;;
2021/06/21 19:18:25;;;;;;;10.2;5.4;;;;;;;25.84;90.25684;97785.74;;;;
2021/06/21 19:28:26;;;;;;;10.6;4.9;;;;;;;25.78;90.66309;97809.55;;;;
2021/06/21 19:38:28;;;;;;;11.1;6.5;;;;;;;25.53;92.43945;97807.3;;;;
2021/06/21 19:48:30;;;;;;;12.1;5.6;;;;;;;25.29;94.29297;97814.06;;;;
2021/06/21 19:58:28;;;;;;;11.8;5.2;;;;;;;25.04;92.87305;97800.73;;;;
2021/06/21 20:08:27;;;;;;;12.6;7;;;;;;;24.65;96.36035;97786.05;;;;
2021/06/21 20:18:28;;;;;;;15.9;7.7;;;;;;;24.31;100;97788.98;;;;
2021/06/21 20:28:28;;;;;;;13.7;8.7;;;;;;;24.02;100;97783.87;;;;
2021/06/21 20:38:30;;;;;;;21.7;11.2;;;;;;;23.86;100;97794.73;;;;
2021/06/21 20:48:28;;;;;;;16.6;8.3;;;;;;;23.54;100;97789.64;;;;
2021/06/21 20:58:28;;;;;;;9.3;5.9;;;;;;;23.18;100;97810.48;;;;
2021/06/21 21:08:28;;;;;;;10.5;6.1;;;;;;;22.88;100;97813.91;;;;
2021/06/21 21:18:28;;;;;;;9;6;;;;;;;22.55;100;97814.59;;;;
2021/06/21 21:28:29;;;;;;;11.7;6.6;;;;;;;22.41;100;97823.72;;;;
2021/06/21 21:38:29;;;;;;;13.5;7.8;;;;;;;22.4;100;97816.66;;;;
2021/06/21 21:48:29;;;;;;;10.5;6.6;;;;;;;22.24;100;97808.16;;;;
2021/06/21 21:58:29;;;;;;;15.2;7.8;;;;;;;21.96;100;97794.63;;;;
2021/06/21 22:08:28;;;;;;;13.9;6.9;;;;;;;21.74;100;97796.67;;;;
2021/06/21 22:18:28;;;;;;;13.5;6;;;;;;;21.62;100;97799.09;;;;
2021/06/21 22:28:28;;;;;;;16.7;8.1;;;;;;;21.41;100;97798.02;;;;
2021/06/21 22:38:28;;;;;;;9.5;5.8;;;;;;;21.18;100;97810.59;;;;
2021/06/21 22:48:28;;;;;;;15.8;6.9;;;;;;;20.94;100;97812.2;;;;
2021/06/21 22:58:28;;;;;;;11.6;6.5;;;;;;;20.87;100;97803.98;;;;
2021/06/21 23:08:28;;;;;;;13.5;6.5;;;;;;;20.87;100;97814.94;;;;
2021/06/21 23:18:28;;;;;;;12;6.9;;;;;;;20.75;100;97796.2;;;;
2021/06/21 23:28:27;;;;;;;14.4;7;;;;;;;20.44;100;97786.84;;;;
2021/06/21 23:38:27;;;;;;;11.3;7.3;;;;;;;20.18;100;97787.17;;;;
2021/06/21 23:48:27;;;;;;;13.4;6.4;;;;;;;20.03;100;97783.63;;;;
2021/06/21 23:58:27;;;;;;;10.1;6;;;;;;;19.96;100;97794.56;;;;
